Time;durP1;ratioP1;P1;durP2;ratioP2;P2;SDS_P1;SDS_P2;PMS_P1;PMS_P2;Temp;Humidity;BMP_temperature;BMP_pressure;BME280_temperature;BME280_humidity;BME280_pressure;Samples;Min_cycle;Max_cycle;Signal;HPM_P1;HPM_P2
2022/05/01 00:00:25;;;;;;;;;;;;;;;;;;4974788;28;19922;-68
2022/05/01 00:03:30;;;;;;;;;;;;;;;;;;4970890;28;20181;-70
2022/05/01 00:06:15;;;;;;;;;;;;;;;;;;4971145;28;19922;-70
2022/05/01 00:09:00;;;;;;;;;;;;;;;;;;4970084;28;20278;-70
2022/05/01 00:11:46;;;;;;;;;;;;;;;;;;4977413;28;19914;-70
2022/05/01 00:14:31;;;;;;;;;;;;;;;;;;4970360;28;20057;-73
2022/05/01 00:17:17;;;;;;;;;;;;;;;;;;4954959;28;19953;-63
2022/05/01 00:20:02;;;;;;;;;;;;;;;;;;4972527;28;20444;-62
2022/05/01 00:22:47;;;;;;;;;;;;;;;;;;4989909;28;19921;-63
2022/05/01 00:25:32;;;;;;;;;;;;;;;;;;4980184;28;19914;-65
2022/05/01 00:28:18;;;;;;;;;;;;;;;;;;4970196;28;19914;-63
2022/05/01 00:31:05;;;;;;;;;;;;;;;;;;4969732;28;20371;-62
2022/05/01 00:36:54;;;;;;;;;;;;;;;;;;4970295;28;19945;-75
2022/05/01 00:39:39;;;;;;;;;;;;;;;;;;4962472;28;19929;-77
2022/05/01 00:42:24;;;;;;;;;;;;;;;;;;4962157;28;19939;-76
2022/05/01 00:45:09;;;;;;;;;;;;;;;;;;4957703;28;19937;-78
2022/05/01 00:47:54;;;;;;;;;;;;;;;;;;4972398;28;19981;-77
2022/05/01 00:50:41;;;;;;;;;;;;;;;;;;4976144;28;19914;-70
2022/05/01 00:53:26;;;;;;;;;;;;;;;;;;4972431;28;19921;-60
2022/05/01 00:56:11;;;;;;;;;;;;;;;;;;4974748;28;19925;-60
2022/05/01 00:58:56;;;;;;;;;;;;;;;;;;4975591;28;20281;-60
2022/05/01 01:01:42;;;;;;;;;;;;;;;;;;4980122;28;19973;-60
2022/05/01 01:04:27;;;;;;;;;;;;;;;;;;4975499;28;19914;-60
2022/05/01 01:07:14;;;;;;;;;;;;;;;;;;4974905;28;19921;-59
2022/05/01 01:09:59;;;;;;;;;;;;;;;;;;4983893;28;19913;-64
2022/05/01 01:12:56;;;;;;;;;;;;;;;;;;4978145;28;19953;-64
2022/05/01 01:15:41;;;;;;;;;;;;;;;;;;4968730;28;19918;-66
2022/05/01 01:18:26;;;;;;;;;;;;;;;;;;4989242;28;19921;-65
2022/05/01 01:21:11;;;;;;;;;;;;;;;;;;4979856;28;20055;-66
2022/05/01 01:23:57;;;;;;;;;;;;;;;;;;4973893;28;20370;-65
2022/05/01 01:26:42;;;;;;;;;;;;;;;;;;4977502;28;20417;-70
2022/05/01 01:32:39;;;;;;;;;;;;;;;;;;4984229;28;19913;-73
2022/05/01 01:35:24;;;;;;;;;;;;;;;;;;4975109;28;19984;-69
2022/05/01 01:38:09;;;;;;;;;;;;;;;;;;4987461;28;19932;-69
2022/05/01 01:40:54;;;;;;;;;;;;;;;;;;4977553;28;20798;-70
2022/05/01 01:43:40;;;;;;;;;;;;;;;;;;4984763;28;20004;-69
2022/05/01 01:46:25;;;;;;;;;;;;;;;;;;4995229;28;19953;-62
2022/05/01 01:49:10;;;;;;;;;;;;;;;;;;4974338;28;19914;-61
2022/05/01 01:51:55;;;;;;;;;;;;;;;;;;4975465;28;19940;-60
2022/05/01 01:54:40;;;;;;;;;;;;;;;;;;4988059;28;19940;-59
2022/05/01 01:57:26;;;;;;;;;;;;;;;;;;4985406;28;19914;-61
2022/05/01 02:00:11;;;;;;;;;;;;;;;;;;4985332;28;19910;-62
2022/05/01 02:02:56;;;;;;;;;;;;;;;;;;4971683;28;19914;-60
2022/05/01 02:05:41;;;;;;;;;;;;;;;;;;4978389;28;19914;-72
2022/05/01 02:08:26;;;;;;;;;;;;;;;;;;4976567;28;19914;-65
2022/05/01 02:11:12;;;;;;;;;;;;;;;;;;4971107;28;19926;-67
2022/05/01 02:13:57;;;;;;;;;;;;;;;;;;4976811;28;19917;-64
2022/05/01 02:16:42;;;;;;;;;;;;;;;;;;4971711;28;20269;-65
2022/05/01 02:19:28;;;;;;;;;;;;;;;;;;4972345;28;19960;-63
2022/05/01 02:22:13;;;;;;;;;;;;;;;;;;4977983;28;19914;-63
2022/05/01 02:24:58;;;;;;;;;;;;;;;;;;4997658;28;19913;-67
2022/05/01 02:27:43;;;;;;;;;;;;;;;;;;4969052;28;19996;-64
2022/05/01 02:30:28;;;;;;;;;;;;;;;;;;4977006;28;20009;-64
2022/05/01 02:33:13;;;;;;;;;;;;;;;;;;4965323;28;19960;-64
2022/05/01 02:35:58;;;;;;;;;;;;;;;;;;4974117;28;19925;-64
2022/05/01 02:38:44;;;;;;;;;;;;;;;;;;4971266;28;19914;-63
2022/05/01 02:41:29;;;;;;;;;;;;;;;;;;4961695;28;19918;-76
2022/05/01 02:44:14;;;;;;;;;;;;;;;;;;4967398;28;20349;-78
2022/05/01 02:47:00;;;;;;;;;;;;;;;;;;4978249;28;19965;-76
2022/05/01 02:49:46;;;;;;;;;;;;;;;;;;4990503;28;19918;-76
2022/05/01 02:52:31;;;;;;;;;;;;;;;;;;4988743;28;19941;-79
2022/05/01 02:55:16;;;;;;;;;;;;;;;;;;4948011;28;19925;-77
2022/05/01 02:58:02;;;;;;;;;;;;;;;;;;4970700;28;19922;-79
2022/05/01 03:00:47;;;;;;;;;;;;;;;;;;4971685;28;19922;-64
2022/05/01 03:03:33;;;;;;;;;;;;;;;;;;4975116;28;19921;-70
2022/05/01 03:06:18;;;;;;;;;;;;;;;;;;4977397;28;20377;-69
2022/05/01 03:09:03;;;;;;;;;;;;;;;;;;4975100;28;19921;-70
2022/05/01 03:11:48;;;;;;;;;;;;;;;;;;4973653;28;19913;-70
2022/05/01 03:14:33;;;;;;;;;;;;;;;;;;4966762;28;20019;-69
2022/05/01 03:17:19;;;;;;;;;;;;;;;;;;4976910;28;19937;-70
2022/05/01 03:23:08;;;;;;;;;;;;;;;;;;4982124;28;19913;-63
2022/05/01 03:25:53;;;;;;;;;;;;;;;;;;4973522;28;20265;-64
2022/05/01 03:28:39;;;;;;;;;;;;;;;;;;4956527;28;19918;-63
2022/05/01 03:31:27;;;;;;;;;;;;;;;;;;4982336;28;19953;-67
2022/05/01 03:34:12;;;;;;;;;;;;;;;;;;4983881;28;20279;-66
2022/05/01 03:36:57;;;;;;;;;;;;;;;;;;4983211;28;19914;-67
2022/05/01 03:39:42;;;;;;;;;;;;;;;;;;4983254;28;20277;-64
2022/05/01 03:42:28;;;;;;;;;;;;;;;;;;4989597;28;19917;-65
2022/05/01 03:45:13;;;;;;;;;;;;;;;;;;4981081;28;19921;-61
2022/05/01 03:47:58;;;;;;;;;;;;;;;;;;4977329;28;20391;-68
2022/05/01 03:50:44;;;;;;;;;;;;;;;;;;4983195;28;19914;-64
2022/05/01 03:53:32;;;;;;;;;;;;;;;;;;4985199;28;19914;-65
2022/05/01 03:56:17;;;;;;;;;;;;;;;;;;4985141;28;19954;-64
2022/05/01 03:59:04;;;;;;;;;;;;;;;;;;4975770;28;19914;-73
2022/05/01 04:01:49;;;;;;;;;;;;;;;;;;4965149;28;19937;-74
2022/05/01 04:04:35;;;;;;;;;;;;;;;;;;4981392;28;19944;-74
2022/05/01 04:07:20;;;;;;;;;;;;;;;;;;4970733;28;19914;-72
2022/05/01 04:10:05;;;;;;;;;;;;;;;;;;4973589;28;19928;-71
2022/05/01 04:12:51;;;;;;;;;;;;;;;;;;4971586;28;19914;-69
2022/05/01 04:15:39;;;;;;;;;;;;;;;;;;4978659;28;20001;-71
2022/05/01 04:18:25;;;;;;;;;;;;;;;;;;4983901;28;19957;-73
2022/05/01 04:21:13;;;;;;;;;;;;;;;;;;4988272;28;19914;-71
2022/05/01 04:23:58;;;;;;;;;;;;;;;;;;4985819;28;20392;-71
2022/05/01 04:26:43;;;;;;;;;;;;;;;;;;4975120;28;19914;-71
2022/05/01 04:29:38;;;;;;;;;;;;;;;;;;4984318;28;20392;-73
2022/05/01 04:32:24;;;;;;;;;;;;;;;;;;4970089;28;19914;-62
2022/05/01 04:35:09;;;;;;;;;;;;;;;;;;4987704;28;20013;-78
2022/05/01 04:37:55;;;;;;;;;;;;;;;;;;4969705;28;19956;-78
2022/05/01 04:40:41;;;;;;;;;;;;;;;;;;4968966;28;20382;-78
2022/05/01 04:43:26;;;;;;;;;;;;;;;;;;4976948;28;19996;-77
2022/05/01 04:46:11;;;;;;;;;;;;;;;;;;4981982;28;20004;-80
2022/05/01 04:48:56;;;;;;;;;;;;;;;;;;4970146;28;20009;-64
2022/05/01 04:51:41;;;;;;;;;;;;;;;;;;4975189;28;20277;-61
2022/05/01 04:54:26;;;;;;;;;;;;;;;;;;4978968;28;19973;-65
2022/05/01 04:57:13;;;;;;;;;;;;;;;;;;4968323;28;19917;-65
2022/05/01 04:59:58;;;;;;;;;;;;;;;;;;4969954;28;19929;-66
2022/05/01 05:02:43;;;;;;;;;;;;;;;;;;4976316;28;19914;-64
2022/05/01 05:05:28;;;;;;;;;;;;;;;;;;4969430;28;19914;-65
2022/05/01 05:11:18;;;;;;;;;;;;;;;;;;4977902;28;20369;-63
2022/05/01 05:14:04;;;;;;;;;;;;;;;;;;4963783;28;19918;-63
2022/05/01 05:16:50;;;;;;;;;;;;;;;;;;4968425;28;19962;-66
2022/05/01 05:19:35;;;;;;;;;;;;;;;;;;4983483;28;19922;-65
2022/05/01 05:22:20;;;;;;;;;;;;;;;;;;4960283;28;19957;-65
2022/05/01 05:25:05;;;;;;;;;;;;;;;;;;4986690;28;19918;-65
2022/05/01 05:27:50;;;;;;;;;;;;;;;;;;4979780;28;19915;-64
2022/05/01 05:30:35;;;;;;;;;;;;;;;;;;4970985;28;19921;-71
2022/05/01 05:33:20;;;;;;;;;;;;;;;;;;4974904;28;19922;-71
2022/05/01 05:36:06;;;;;;;;;;;;;;;;;;4972959;28;19922;-70
2022/05/01 05:38:51;;;;;;;;;;;;;;;;;;4988039;28;19920;-69
2022/05/01 05:41:36;;;;;;;;;;;;;;;;;;4988746;28;20016;-70
2022/05/01 05:44:21;;;;;;;;;;;;;;;;;;4984525;28;19921;-60
2022/05/01 05:47:06;;;;;;;;;;;;;;;;;;4971840;28;19914;-72
2022/05/01 05:49:51;;;;;;;;;;;;;;;;;;4967169;28;19989;-70
2022/05/01 05:52:36;;;;;;;;;;;;;;;;;;4982200;28;19914;-69
2022/05/01 05:55:22;;;;;;;;;;;;;;;;;;4983208;28;19918;-69
2022/05/01 05:58:07;;;;;;;;;;;;;;;;;;4988312;28;20016;-69
2022/05/01 06:00:52;;;;;;;;;;;;;;;;;;4973044;28;19942;-70
2022/05/01 06:03:37;;;;;;;;;;;;;;;;;;4986339;28;20314;-64
2022/05/01 06:06:22;;;;;;;;;;;;;;;;;;4972539;28;19922;-77
2022/05/01 06:09:08;;;;;;;;;;;;;;;;;;4971182;28;20512;-77
2022/05/01 06:11:53;;;;;;;;;;;;;;;;;;4987662;28;19964;-76
2022/05/01 06:14:39;;;;;;;;;;;;;;;;;;4988149;28;19985;-76
2022/05/01 06:17:24;;;;;;;;;;;;;;;;;;4972536;28;19914;-77
2022/05/01 06:20:09;;;;;;;;;;;;;;;;;;4984218;28;20341;-76
2022/05/01 06:22:56;;;;;;;;;;;;;;;;;;4983570;28;19973;-62
2022/05/01 06:25:43;;;;;;;;;;;;;;;;;;4981166;28;19921;-60
2022/05/01 06:28:28;;;;;;;;;;;;;;;;;;4972063;28;19914;-60
2022/05/01 06:31:13;;;;;;;;;;;;;;;;;;4974370;28;19972;-62
2022/05/01 06:33:58;;;;;;;;;;;;;;;;;;4985545;28;19926;-60
2022/05/01 06:36:43;;;;;;;;;;;;;;;;;;4978637;28;19914;-59
2022/05/01 06:39:28;;;;;;;;;;;;;;;;;;4972636;28;19910;-61
2022/05/01 06:42:14;;;;;;;;;;;;;;;;;;4983541;28;19976;-78
2022/05/01 06:44:59;;;;;;;;;;;;;;;;;;4983575;28;19913;-60
2022/05/01 06:47:45;;;;;;;;;;;;;;;;;;4968530;28;19922;-62
2022/05/01 06:50:30;;;;;;;;;;;;;;;;;;4970167;28;20369;-61
2022/05/01 06:53:15;;;;;;;;;;;;;;;;;;4958013;28;20379;-61
2022/05/01 06:56:00;;;;;;;;;;;;;;;;;;4975697;28;19925;-63
2022/05/01 06:58:45;;;;;;;;;;;;;;;;;;4981673;28;20313;-65
2022/05/01 07:01:31;;;;;;;;;;;;;;;;;;4976464;28;19929;-62
2022/05/01 07:04:16;;;;;;;;;;;;;;;;;;4985063;28;19914;-62
2022/05/01 07:07:01;;;;;;;;;;;;;;;;;;4973145;28;20424;-61
2022/05/01 07:09:46;;;;;;;;;;;;;;;;;;4984549;28;19914;-62
2022/05/01 07:12:31;;;;;;;;;;;;;;;;;;4980508;28;20274;-62
2022/05/01 07:15:16;;;;;;;;;;;;;;;;;;4971046;28;19917;-62
2022/05/01 07:18:01;;;;;;;;;;;;;;;;;;4964502;28;19922;-62
2022/05/01 07:20:47;;;;;;;;;;;;;;;;;;4982448;28;19914;-76
2022/05/01 07:23:32;;;;;;;;;;;;;;;;;;4984634;28;19914;-76
2022/05/01 07:26:18;;;;;;;;;;;;;;;;;;4988348;28;20325;-76
2022/05/01 07:29:03;;;;;;;;;;;;;;;;;;4971111;28;19914;-76
2022/05/01 07:31:48;;;;;;;;;;;;;;;;;;4972127;28;19918;-78
2022/05/01 07:34:33;;;;;;;;;;;;;;;;;;4980959;28;19925;-76
2022/05/01 07:37:22;;;;;;;;;;;;;;;;;;4970999;28;20454;-69
2022/05/01 07:40:08;;;;;;;;;;;;;;;;;;5016945;23;19922;-62
2022/05/01 07:42:53;;;;;;;;;;;;;;;;;;4969758;28;19957;-64
2022/05/01 07:45:38;;;;;;;;;;;;;;;;;;4972275;28;20346;-64
2022/05/01 07:48:23;;;;;;;;;;;;;;;;;;4983723;28;19914;-63
2022/05/01 07:51:08;;;;;;;;;;;;;;;;;;4985762;28;19918;-63
2022/05/01 07:53:56;;;;;;;;;;;;;;;;;;4967276;28;19996;-62
2022/05/01 07:56:41;;;;;;;;;;;;;;;;;;4965594;28;20273;-59
2022/05/01 07:59:26;;;;;;;;;;;;;;;;;;5002875;28;19965;-63
2022/05/01 08:02:11;;;;;;;;;;;;;;;;;;4974852;28;20394;-63
2022/05/01 08:04:57;;;;;;;;;;;;;;;;;;4974283;28;19913;-62
2022/05/01 08:07:42;;;;;;;;;;;;;;;;;;4969488;28;19914;-67
2022/05/01 08:10:27;;;;;;;;;;;;;;;;;;4980552;28;19968;-62
2022/05/01 08:13:12;;;;;;;;;;;;;;;;;;4985345;28;20000;-64
2022/05/01 08:15:57;;;;;;;;;;;;;;;;;;4988986;28;19968;-68
2022/05/01 08:21:46;;;;;;;;;;;;;;;;;;4981453;28;20317;-67
2022/05/01 08:24:31;;;;;;;;;;;;;;;;;;4978781;28;19926;-67
2022/05/01 08:27:16;;;;;;;;;;;;;;;;;;4982777;28;20360;-71
2022/05/01 08:30:01;;;;;;;;;;;;;;;;;;4972119;28;20292;-62
2022/05/01 08:32:47;;;;;;;;;;;;;;;;;;4989094;28;19922;-65
2022/05/01 08:35:32;;;;;;;;;;;;;;;;;;4989536;28;20008;-60
2022/05/01 08:38:17;;;;;;;;;;;;;;;;;;4989150;28;19953;-61
2022/05/01 08:41:02;;;;;;;;;;;;;;;;;;4975092;28;19972;-65
2022/05/01 08:43:47;;;;;;;;;;;;;;;;;;4979784;28;19960;-63
2022/05/01 08:46:32;;;;;;;;;;;;;;;;;;4988333;28;19913;-62
2022/05/01 08:49:17;;;;;;;;;;;;;;;;;;4988866;28;19913;-61
2022/05/01 08:52:03;;;;;;;;;;;;;;;;;;4975522;28;20363;-64
2022/05/01 08:54:48;;;;;;;;;;;;;;;;;;4976190;28;19932;-63
2022/05/01 08:57:33;;;;;;;;;;;;;;;;;;4988696;28;19973;-64
2022/05/01 09:00:18;;;;;;;;;;;;;;;;;;4984802;28;20277;-63
2022/05/01 09:03:04;;;;;;;;;;;;;;;;;;4984168;28;20001;-63
2022/05/01 09:05:49;;;;;;;;;;;;;;;;;;4975302;28;19945;-63
2022/05/01 09:08:34;;;;;;;;;;;;;;;;;;4957416;28;20014;-68
2022/05/01 09:14:23;;;;;;;;;;;;;;;;;;4992978;28;19917;-61
2022/05/01 09:17:08;;;;;;;;;;;;;;;;;;4978676;28;19914;-61
2022/05/01 09:19:56;;;;;;;;;;;;;;;;;;4978154;28;19914;-61
2022/05/01 09:22:41;;;;;;;;;;;;;;;;;;4991350;28;19913;-61
2022/05/01 09:25:27;;;;;;;;;;;;;;;;;;4992385;28;19913;-70
2022/05/01 09:28:12;;;;;;;;;;;;;;;;;;4978905;28;19937;-62
2022/05/01 09:30:57;;;;;;;;;;;;;;;;;;4982064;28;19915;-65
2022/05/01 09:33:42;;;;;;;;;;;;;;;;;;4986752;28;19960;-64
2022/05/01 09:36:27;;;;;;;;;;;;;;;;;;4996339;28;20383;-63
2022/05/01 09:39:12;;;;;;;;;;;;;;;;;;4979543;28;19914;-64
2022/05/01 09:41:58;;;;;;;;;;;;;;;;;;4977386;28;19913;-64
2022/05/01 09:44:43;;;;;;;;;;;;;;;;;;4984243;28;19913;-62
2022/05/01 09:47:28;;;;;;;;;;;;;;;;;;4989033;28;19914;-67
2022/05/01 09:50:13;;;;;;;;;;;;;;;;;;4985443;28;19913;-67
2022/05/01 09:52:58;;;;;;;;;;;;;;;;;;4977654;28;19913;-67
2022/05/01 09:55:43;;;;;;;;;;;;;;;;;;4981914;28;19917;-66
2022/05/01 09:58:28;;;;;;;;;;;;;;;;;;4987425;28;20311;-69
2022/05/01 10:01:14;;;;;;;;;;;;;;;;;;4983686;28;19914;-71
2022/05/01 10:03:59;;;;;;;;;;;;;;;;;;4991062;28;19914;-67
2022/05/01 10:06:44;;;;;;;;;;;;;;;;;;4969531;28;20268;-64
2022/05/01 10:09:29;;;;;;;;;;;;;;;;;;4981596;28;19920;-63
2022/05/01 10:12:14;;;;;;;;;;;;;;;;;;4992086;28;19944;-66
2022/05/01 10:14:59;;;;;;;;;;;;;;;;;;4983253;28;19925;-63
2022/05/01 10:17:45;;;;;;;;;;;;;;;;;;4970567;28;19914;-63
2022/05/01 10:20:30;;;;;;;;;;;;;;;;;;4995696;28;19914;-64
2022/05/01 10:23:16;;;;;;;;;;;;;;;;;;4990511;28;19928;-70
2022/05/01 10:26:01;;;;;;;;;;;;;;;;;;4981218;28;20489;-63
2022/05/01 10:28:46;;;;;;;;;;;;;;;;;;4986700;28;20304;-64
2022/05/01 10:34:35;;;;;;;;;;;;;;;;;;4991952;28;19917;-67
2022/05/01 10:37:21;;;;;;;;;;;;;;;;;;4989855;28;19914;-67
2022/05/01 10:40:06;;;;;;;;;;;;;;;;;;4967195;28;19914;-67
2022/05/01 10:42:52;;;;;;;;;;;;;;;;;;4979326;28;19925;-67
2022/05/01 10:45:37;;;;;;;;;;;;;;;;;;4983680;28;19910;-67
2022/05/01 10:48:22;;;;;;;;;;;;;;;;;;4990203;28;19914;-66
2022/05/01 10:51:07;;;;;;;;;;;;;;;;;;4979195;28;19961;-64
2022/05/01 10:53:53;;;;;;;;;;;;;;;;;;4974663;28;20004;-66
2022/05/01 10:56:38;;;;;;;;;;;;;;;;;;4979998;28;19921;-64
2022/05/01 10:59:23;;;;;;;;;;;;;;;;;;4997756;28;20079;-62
2022/05/01 11:02:08;;;;;;;;;;;;;;;;;;4980713;28;19914;-60
2022/05/01 11:04:53;;;;;;;;;;;;;;;;;;4975543;28;19921;-60
2022/05/01 11:07:39;;;;;;;;;;;;;;;;;;4980319;28;19914;-60
2022/05/01 11:10:24;;;;;;;;;;;;;;;;;;4989845;28;19967;-62
2022/05/01 11:13:09;;;;;;;;;;;;;;;;;;4991109;28;20003;-61
2022/05/01 11:15:55;;;;;;;;;;;;;;;;;;4988152;28;20340;-68
2022/05/01 11:18:40;;;;;;;;;;;;;;;;;;4987200;28;19961;-61
2022/05/01 11:21:26;;;;;;;;;;;;;;;;;;4975369;28;19972;-69
2022/05/01 11:24:13;;;;;;;;;;;;;;;;;;4990882;28;19992;-69
2022/05/01 11:26:58;;;;;;;;;;;;;;;;;;4984237;28;19914;-69
2022/05/01 11:29:43;;;;;;;;;;;;;;;;;;4981660;28;19914;-68
2022/05/01 11:32:29;;;;;;;;;;;;;;;;;;4975884;28;19965;-69
2022/05/01 11:35:14;;;;;;;;;;;;;;;;;;4996807;28;20422;-68
2022/05/01 11:37:59;;;;;;;;;;;;;;;;;;4989034;28;19921;-62
2022/05/01 11:40:44;;;;;;;;;;;;;;;;;;4989508;28;20012;-63
2022/05/01 11:43:29;;;;;;;;;;;;;;;;;;4978702;28;20306;-63
2022/05/01 11:46:14;;;;;;;;;;;;;;;;;;4976660;28;19922;-62
2022/05/01 11:48:59;;;;;;;;;;;;;;;;;;4989663;28;20280;-63
2022/05/01 11:51:47;;;;;;;;;;;;;;;;;;4987150;28;19969;-63
2022/05/01 11:54:33;;;;;;;;;;;;;;;;;;4976634;28;20332;-62
2022/05/01 12:03:22;;;;;;;;;;;;;;;;;;4986164;28;20362;-64
2022/05/01 12:06:07;;;;;;;;;;;;;;;;;;4975628;28;19996;-65
2022/05/01 12:08:52;;;;;;;;;;;;;;;;;;4984657;28;19913;-66
2022/05/01 12:11:38;;;;;;;;;;;;;;;;;;4987651;28;19917;-63
2022/05/01 12:14:23;;;;;;;;;;;;;;;;;;4988590;28;20056;-67
2022/05/01 12:17:08;;;;;;;;;;;;;;;;;;4976492;28;20124;-71
2022/05/01 12:19:58;;;;;;;;;;;;;;;;;;4971542;28;20375;-70
2022/05/01 12:22:43;;;;;;;;;;;;;;;;;;4987819;28;19914;-69
2022/05/01 12:25:28;;;;;;;;;;;;;;;;;;4989074;28;20286;-70
2022/05/01 12:28:15;;;;;;;;;;;;;;;;;;4974960;28;19913;-70
2022/05/01 12:31:00;;;;;;;;;;;;;;;;;;4969144;28;20239;-66
2022/05/01 12:33:45;;;;;;;;;;;;;;;;;;4987879;28;19914;-61
2022/05/01 12:36:30;;;;;;;;;;;;;;;;;;4986212;28;19922;-60
2022/05/01 12:39:16;;;;;;;;;;;;;;;;;;4977554;28;19921;-62
2022/05/01 12:45:05;;;;;;;;;;;;;;;;;;4985155;28;19922;-61
2022/05/01 12:47:50;;;;;;;;;;;;;;;;;;4989251;28;20017;-66
2022/05/01 12:50:37;;;;;;;;;;;;;;;;;;4974892;28;20345;-71
2022/05/01 12:53:23;;;;;;;;;;;;;;;;;;4978654;28;19914;-64
2022/05/01 12:56:08;;;;;;;;;;;;;;;;;;4985651;28;19921;-63
2022/05/01 12:58:53;;;;;;;;;;;;;;;;;;4980931;28;19917;-63
2022/05/01 13:01:38;;;;;;;;;;;;;;;;;;4989458;28;20277;-63
2022/05/01 13:04:24;;;;;;;;;;;;;;;;;;4976108;28;20115;-63
2022/05/01 13:07:09;;;;;;;;;;;;;;;;;;4993453;28;19914;-67
2022/05/01 13:09:54;;;;;;;;;;;;;;;;;;4988225;28;19921;-67
2022/05/01 13:12:40;;;;;;;;;;;;;;;;;;4981095;28;19914;-67
2022/05/01 13:15:25;;;;;;;;;;;;;;;;;;4968739;28;19953;-69
2022/05/01 13:18:10;;;;;;;;;;;;;;;;;;4977808;28;19968;-68
2022/05/01 13:20:55;;;;;;;;;;;;;;;;;;4973531;28;19972;-68
2022/05/01 13:23:40;;;;;;;;;;;;;;;;;;4987622;28;19914;-67
2022/05/01 13:26:26;;;;;;;;;;;;;;;;;;4982547;28;19928;-65
2022/05/01 13:29:11;;;;;;;;;;;;;;;;;;4974871;28;19918;-65
2022/05/01 13:31:56;;;;;;;;;;;;;;;;;;4990690;28;19968;-65
2022/05/01 13:34:44;;;;;;;;;;;;;;;;;;4989726;28;20385;-64
2022/05/01 13:37:30;;;;;;;;;;;;;;;;;;4981216;28;19914;-64
2022/05/01 13:46:23;;;;;;;;;;;;;;;;;;4983037;28;19918;-62
2022/05/01 13:49:09;;;;;;;;;;;;;;;;;;4991384;28;20411;-62
2022/05/01 13:51:54;;;;;;;;;;;;;;;;;;4964074;28;20375;-62
2022/05/01 13:54:39;;;;;;;;;;;;;;;;;;4990249;28;20056;-61
2022/05/01 13:57:24;;;;;;;;;;;;;;;;;;4972845;28;20353;-61
2022/05/01 14:00:10;;;;;;;;;;;;;;;;;;4992516;28;19920;-61
2022/05/01 14:02:56;;;;;;;;;;;;;;;;;;4978521;28;20031;-64
2022/05/01 14:05:41;;;;;;;;;;;;;;;;;;4974455;28;19960;-68
2022/05/01 14:08:26;;;;;;;;;;;;;;;;;;4983391;28;20250;-66
2022/05/01 14:11:11;;;;;;;;;;;;;;;;;;4991825;28;20388;-65
2022/05/01 14:13:57;;;;;;;;;;;;;;;;;;4960684;28;19913;-66
2022/05/01 14:16:42;;;;;;;;;;;;;;;;;;4994049;28;19913;-64
2022/05/01 14:19:27;;;;;;;;;;;;;;;;;;4987671;28;20644;-67
2022/05/01 14:22:13;;;;;;;;;;;;;;;;;;4977711;28;20368;-68
2022/05/01 14:24:58;;;;;;;;;;;;;;;;;;4982300;28;19920;-64
2022/05/01 14:27:43;;;;;;;;;;;;;;;;;;4977810;28;20007;-62
2022/05/01 14:30:28;;;;;;;;;;;;;;;;;;4983317;28;19914;-62
2022/05/01 14:33:13;;;;;;;;;;;;;;;;;;4990542;28;19914;-63
2022/05/01 14:35:58;;;;;;;;;;;;;;;;;;4980944;28;19924;-65
2022/05/01 14:38:43;;;;;;;;;;;;;;;;;;4977058;28;20177;-64
2022/05/01 14:41:29;;;;;;;;;;;;;;;;;;4981154;28;19913;-62
2022/05/01 14:44:14;;;;;;;;;;;;;;;;;;4989900;28;19968;-70
2022/05/01 14:47:00;;;;;;;;;;;;;;;;;;4984719;28;20300;-67
2022/05/01 14:49:46;;;;;;;;;;;;;;;;;;4990038;28;19921;-68
2022/05/01 14:52:31;;;;;;;;;;;;;;;;;;4974339;28;19997;-72
2022/05/01 14:55:17;;;;;;;;;;;;;;;;;;4972975;28;20349;-68
2022/05/01 14:58:02;;;;;;;;;;;;;;;;;;4988006;28;20012;-62
2022/05/01 15:06:55;;;;;;;;;;;;;;;;;;4984902;28;19918;-64
2022/05/01 15:09:40;;;;;;;;;;;;;;;;;;4989561;28;19921;-66
2022/05/01 15:12:26;;;;;;;;;;;;;;;;;;4977509;28;19954;-64
2022/05/01 15:15:11;;;;;;;;;;;;;;;;;;4988112;28;19994;-65
2022/05/01 15:17:56;;;;;;;;;;;;;;;;;;4991222;28;20281;-70
2022/05/01 15:20:48;;;;;;;;;;;;;;;;;;4989423;28;19921;-66
2022/05/01 15:23:34;;;;;;;;;;;;;;;;;;4990750;28;20328;-64
2022/05/01 15:26:19;;;;;;;;;;;;;;;;;;4969576;28;19921;-64
2022/05/01 15:29:05;;;;;;;;;;;;;;;;;;4976246;28;19925;-63
2022/05/01 15:31:50;;;;;;;;;;;;;;;;;;4999375;28;20300;-63
2022/05/01 15:34:35;;;;;;;;;;;;;;;;;;4989407;28;19921;-71
2022/05/01 15:37:20;;;;;;;;;;;;;;;;;;4952755;28;19936;-64
2022/05/01 15:40:05;;;;;;;;;;;;;;;;;;4981027;28;19967;-66
2022/05/01 15:42:50;;;;;;;;;;;;;;;;;;4989223;28;19996;-63
2022/05/01 15:45:49;;;;;;;;;;;;;;;;;;4988601;28;19953;-63
2022/05/01 15:54:43;;;;;;;;;;;;;;;;;;4989922;28;19917;-65
2022/05/01 15:57:29;;;;;;;;;;;;;;;;;;4976281;28;19959;-63
2022/05/01 16:00:16;;;;;;;;;;;;;;;;;;4972180;28;20280;-67
2022/05/01 16:03:01;;;;;;;;;;;;;;;;;;4989094;28;20332;-63
2022/05/01 16:05:46;;;;;;;;;;;;;;;;;;4989215;28;20416;-64
2022/05/01 16:08:32;;;;;;;;;;;;;;;;;;4987834;28;19913;-63
2022/05/01 16:11:17;;;;;;;;;;;;;;;;;;4981831;28;19913;-68
2022/05/01 16:14:02;;;;;;;;;;;;;;;;;;4970938;28;20420;-64
2022/05/01 16:16:47;;;;;;;;;;;;;;;;;;4978660;28;19969;-65
2022/05/01 16:19:32;;;;;;;;;;;;;;;;;;4989916;28;19961;-67
2022/05/01 16:22:18;;;;;;;;;;;;;;;;;;4980892;28;20001;-67
2022/05/01 16:25:03;;;;;;;;;;;;;;;;;;4978406;28;19913;-65
2022/05/01 16:27:49;;;;;;;;;;;;;;;;;;4979170;28;19960;-66
2022/05/01 16:30:37;;;;;;;;;;;;;;;;;;4989949;28;19918;-67
2022/05/01 16:33:22;;;;;;;;;;;;;;;;;;4974340;28;19914;-65
2022/05/01 16:36:07;;;;;;;;;;;;;;;;;;4977169;28;19917;-63
2022/05/01 16:38:52;;;;;;;;;;;;;;;;;;4999038;28;20373;-63
2022/05/01 16:41:40;;;;;;;;;;;;;;;;;;4985018;28;19922;-63
2022/05/01 16:44:25;;;;;;;;;;;;;;;;;;4994861;28;20369;-63
2022/05/01 16:47:10;;;;;;;;;;;;;;;;;;4962901;28;19914;-71
2022/05/01 16:49:56;;;;;;;;;;;;;;;;;;4970809;28;19922;-66
2022/05/01 16:52:41;;;;;;;;;;;;;;;;;;4982173;28;19922;-60
2022/05/01 16:55:27;;;;;;;;;;;;;;;;;;4981996;28;20353;-52
2022/05/01 16:58:12;;;;;;;;;;;;;;;;;;4973199;28;20374;-58
2022/05/01 17:00:58;;;;;;;;;;;;;;;;;;4977256;28;19914;-59
2022/05/01 17:03:45;;;;;;;;;;;;;;;;;;4975955;28;20990;-55
2022/05/01 17:06:30;;;;;;;;;;;;;;;;;;4978978;28;19953;-55
2022/05/01 17:09:15;;;;;;;;;;;;;;;;;;4986056;28;19920;-60
2022/05/01 17:12:01;;;;;;;;;;;;;;;;;;4960811;28;19937;-60
2022/05/01 17:14:46;;;;;;;;;;;;;;;;;;4977718;28;20027;-59
2022/05/01 17:17:32;;;;;;;;;;;;;;;;;;4988057;28;19921;-60
2022/05/01 17:20:17;;;;;;;;;;;;;;;;;;4983309;28;19929;-63
2022/05/01 17:23:03;;;;;;;;;;;;;;;;;;4968351;28;19921;-60
2022/05/01 17:25:49;;;;;;;;;;;;;;;;;;4974548;28;19914;-59
2022/05/01 17:28:34;;;;;;;;;;;;;;;;;;4997060;28;19922;-52
2022/05/01 17:31:19;;;;;;;;;;;;;;;;;;4990328;28;19913;-56
2022/05/01 17:34:05;;;;;;;;;;;;;;;;;;4990409;28;19913;-53
2022/05/01 17:36:50;;;;;;;;;;;;;;;;;;4973188;28;19914;-55
2022/05/01 17:39:35;;;;;;;;;;;;;;;;;;4977020;28;20399;-54
2022/05/01 17:42:23;;;;;;;;;;;;;;;;;;4987409;28;19933;-57
2022/05/01 17:45:10;;;;;;;;;;;;;;;;;;4979548;28;20020;-56
2022/05/01 17:47:55;;;;;;;;;;;;;;;;;;4976215;28;20066;-67
2022/05/01 17:50:40;;;;;;;;;;;;;;;;;;4979075;28;19914;-71
2022/05/01 17:53:25;;;;;;;;;;;;;;;;;;5002482;28;19914;-67
2022/05/01 17:56:10;;;;;;;;;;;;;;;;;;4984928;28;19930;-71
2022/05/01 17:58:55;;;;;;;;;;;;;;;;;;4976804;28;19929;-70
2022/05/01 18:01:41;;;;;;;;;;;;;;;;;;4978576;28;20380;-63
2022/05/01 18:10:34;;;;;;;;;;;;;;;;;;4968183;28;19918;-63
2022/05/01 18:13:19;;;;;;;;;;;;;;;;;;4981661;28;19946;-64
2022/05/01 18:16:04;;;;;;;;;;;;;;;;;;4985298;28;19921;-66
2022/05/01 18:18:49;;;;;;;;;;;;;;;;;;4985378;28;20103;-67
2022/05/01 18:21:35;;;;;;;;;;;;;;;;;;4985595;28;20407;-68
2022/05/01 18:24:20;;;;;;;;;;;;;;;;;;4979771;28;20042;-69
2022/05/01 18:27:07;;;;;;;;;;;;;;;;;;4988576;28;19960;-69
2022/05/01 18:32:56;;;;;;;;;;;;;;;;;;4979054;28;20273;-69
2022/05/01 18:35:41;;;;;;;;;;;;;;;;;;4981505;28;19918;-69
2022/05/01 18:38:26;;;;;;;;;;;;;;;;;;4983733;28;20387;-65
2022/05/01 18:41:11;;;;;;;;;;;;;;;;;;4983192;28;19961;-66
2022/05/01 18:43:56;;;;;;;;;;;;;;;;;;4954806;28;20360;-68
2022/05/01 18:46:41;;;;;;;;;;;;;;;;;;4976176;28;19914;-70
2022/05/01 18:49:26;;;;;;;;;;;;;;;;;;4986111;28;20607;-68
2022/05/01 18:52:13;;;;;;;;;;;;;;;;;;4988172;28;20003;-67
2022/05/01 18:54:58;;;;;;;;;;;;;;;;;;4985981;28;20202;-69
2022/05/01 18:57:43;;;;;;;;;;;;;;;;;;4956982;28;19921;-66
2022/05/01 19:00:28;;;;;;;;;;;;;;;;;;4978339;28;19997;-63
2022/05/01 19:03:13;;;;;;;;;;;;;;;;;;4986853;28;20288;-64
2022/05/01 19:05:58;;;;;;;;;;;;;;;;;;4985977;28;20280;-66
2022/05/01 19:08:44;;;;;;;;;;;;;;;;;;4973414;28;20262;-63
2022/05/01 19:11:29;;;;;;;;;;;;;;;;;;4974078;28;20710;-66
2022/05/01 19:14:14;;;;;;;;;;;;;;;;;;4988577;28;20265;-64
2022/05/01 19:16:59;;;;;;;;;;;;;;;;;;4982589;28;19968;-68
2022/05/01 19:19:44;;;;;;;;;;;;;;;;;;4981331;28;20284;-68
2022/05/01 19:22:29;;;;;;;;;;;;;;;;;;4974168;28;19920;-69
2022/05/01 19:28:18;;;;;;;;;;;;;;;;;;4986022;28;19921;-68
2022/05/01 19:31:04;;;;;;;;;;;;;;;;;;4990426;28;19921;-68
2022/05/01 19:33:49;;;;;;;;;;;;;;;;;;4974643;28;20372;-67
2022/05/01 19:36:34;;;;;;;;;;;;;;;;;;4973885;28;19921;-63
2022/05/01 19:39:19;;;;;;;;;;;;;;;;;;4988140;28;19921;-67
2022/05/01 19:42:04;;;;;;;;;;;;;;;;;;4990298;28;19917;-65
2022/05/01 19:44:49;;;;;;;;;;;;;;;;;;4972053;28;19914;-64
2022/05/01 19:53:42;;;;;;;;;;;;;;;;;;4985614;28;20004;-66
2022/05/01 19:56:28;;;;;;;;;;;;;;;;;;4973088;28;19917;-67